Time;durP1;ratioP1;P1;durP2;ratioP2;P2;SDS_P1;SDS_P2;PMS_P1;PMS_P2;Temp;Humidity;BMP_temperature;BMP_pressure;BME280_temperature;BME280_humidity;BME280_pressure;Samples;Min_cycle;Max_cycle;Signal;HPM_P1;HPM_P2
2022/04/08 00:01:19;;;;;;;3.70;1.30;;;10.10;1.00;;;;;;5105171;28;20498;-58
2022/04/08 00:03:45;;;;;;;2.17;0.90;;;10.00;1.00;;;;;;5102056;28;20537;-57
2022/04/08 00:06:11;;;;;;;2.50;0.93;;;10.20;1.00;;;;;;5108138;28;20238;-57
2022/04/08 00:08:37;;;;;;;1.50;0.90;;;;;;;;;;5094104;28;20840;-57
2022/04/08 00:11:06;;;;;;;3.10;1.10;;;10.30;1.00;;;;;;5103219;28;20282;-58
2022/04/08 00:13:31;;;;;;;1.97;1.30;;;10.30;1.00;;;;;;5103168;28;20552;-58
2022/04/08 00:15:57;;;;;;;1.60;0.70;;;10.30;1.00;;;;;;5100570;28;20523;-58
2022/04/08 00:18:23;;;;;;;1.53;0.80;;;10.20;1.00;;;;;;5102341;28;20182;-58
2022/04/08 00:20:49;;;;;;;6.07;0.73;;;10.20;1.00;;;;;;5103752;28;20175;-57
2022/04/08 00:23:14;;;;;;;4.53;1.30;;;10.20;1.00;;;;;;5105784;28;20444;-58
2022/04/08 00:25:40;;;;;;;1.30;0.80;;;10.20;1.00;;;;;;5101618;28;20187;-59
2022/04/08 00:28:06;;;;;;;1.83;0.93;;;10.30;1.00;;;;;;5099424;28;20186;-57
2022/04/08 00:30:31;;;;;;;1.47;0.80;;;10.40;1.00;;;;;;5099767;28;20189;-58
2022/04/08 00:32:58;;;;;;;4.00;0.90;;;10.30;1.00;;;;;;5100249;28;20647;-58
2022/04/08 00:35:24;;;;;;;3.47;0.70;;;10.40;1.00;;;;;;5106782;28;20300;-58
2022/04/08 00:37:50;;;;;;;2.30;0.90;;;10.50;1.00;;;;;;5107005;28;20446;-58
2022/04/08 00:40:16;;;;;;;4.13;0.90;;;10.60;1.00;;;;;;5098813;28;20432;-58
2022/04/08 00:42:43;;;;;;;3.60;1.00;;;10.50;1.00;;;;;;5101955;28;20174;-58
2022/04/08 00:45:09;;;;;;;1.83;0.80;;;10.60;1.00;;;;;;5103580;28;20447;-58
2022/04/08 00:47:37;;;;;;;5.80;1.30;;;10.60;1.00;;;;;;5104887;28;20961;-58
2022/04/08 00:50:03;;;;;;;4.13;1.03;;;10.70;1.00;;;;;;5103361;28;20455;-58
2022/04/08 00:52:33;;;;;;;1.47;0.70;;;10.70;1.00;;;;;;5107468;28;20794;-58
2022/04/08 00:54:59;;;;;;;1.40;0.70;;;;;;;;;;5099944;28;20488;-59
2022/04/08 00:57:24;;;;;;;2.07;0.80;;;10.70;1.00;;;;;;5097271;28;20449;-59
2022/04/08 00:59:51;;;;;;;2.50;0.93;;;10.80;1.00;;;;;;5104021;28;20441;-57
2022/04/08 01:02:17;;;;;;;2.47;1.03;;;;;;;;;;5101141;28;20193;-59
2022/04/08 01:04:42;;;;;;;2.70;0.90;;;10.70;1.00;;;;;;5101417;28;20484;-58
2022/04/08 01:07:08;;;;;;;2.90;0.80;;;10.70;1.00;;;;;;5103037;28;20443;-57
2022/04/08 01:09:34;;;;;;;2.23;1.47;;;10.50;1.00;;;;;;5093825;28;20187;-58
2022/04/08 01:12:00;;;;;;;2.30;0.90;;;10.50;1.00;;;;;;5107272;28;20190;-58
2022/04/08 01:14:26;;;;;;;1.90;1.17;;;;;;;;;;5094573;28;20873;-58
2022/04/08 01:16:51;;;;;;;4.23;1.03;;;10.60;1.00;;;;;;5106033;28;20183;-58
2022/04/08 01:19:17;;;;;;;2.13;0.70;;;10.50;1.00;;;;;;5099115;28;20925;-57
2022/04/08 01:21:43;;;;;;;2.83;0.70;;;;;;;;;;5100480;28;20236;-59
2022/04/08 01:24:12;;;;;;;5.23;1.10;;;10.70;1.00;;;;;;5102953;28;20557;-57
2022/04/08 01:26:40;;;;;;;4.20;1.27;;;10.50;1.00;;;;;;5103330;28;20448;-59
2022/04/08 01:29:05;;;;;;;2.63;1.30;;;10.50;1.00;;;;;;5107909;28;20535;-58
2022/04/08 01:31:31;;;;;;;6.13;1.30;;;10.40;1.00;;;;;;5097608;28;21029;-58
2022/04/08 01:33:56;;;;;;;4.63;1.10;;;10.50;1.00;;;;;;5103768;28;20198;-58
2022/04/08 01:36:22;;;;;;;4.73;1.10;;;10.50;1.00;;;;;;5099179;28;20186;-57
2022/04/08 01:38:48;;;;;;;5.10;1.00;;;10.30;1.00;;;;;;5100070;28;20228;-58
2022/04/08 01:41:16;;;;;;;2.97;1.07;;;10.30;1.00;;;;;;5105484;28;20186;-58
2022/04/08 01:43:45;;;;;;;3.20;1.03;;;10.30;1.00;;;;;;5104268;28;20193;-58
2022/04/08 01:46:11;;;;;;;4.70;1.60;;;10.20;1.00;;;;;;5110564;28;20916;-58
2022/04/08 01:48:36;;;;;;;2.90;1.00;;;10.20;1.00;;;;;;5105508;28;20508;-58
2022/04/08 01:51:02;;;;;;;4.77;1.93;;;10.20;1.00;;;;;;5107578;28;20444;-58
2022/04/08 01:53:27;;;;;;;2.50;1.33;;;10.00;1.00;;;;;;5106585;28;20174;-58
2022/04/08 01:55:53;;;;;;;1.50;0.87;;;;;;;;;;5104109;28;20254;-59
2022/04/08 01:58:19;;;;;;;2.40;0.70;;;10.00;1.00;;;;;;5106726;28;20193;-57
2022/04/08 02:00:44;;;;;;;4.73;1.03;;;10.00;1.00;;;;;;5108539;28;20432;-59
2022/04/08 02:03:10;;;;;;;2.17;0.80;;;10.00;1.00;;;;;;5107605;28;20309;-59
2022/04/08 02:05:36;;;;;;;1.03;0.93;;;10.00;1.00;;;;;;5103748;28;20194;-59
2022/04/08 02:08:02;;;;;;;1.77;0.63;;;9.90;1.00;;;;;;5102407;28;20205;-58
2022/04/08 02:10:27;;;;;;;1.83;0.97;;;9.90;1.00;;;;;;5108438;28;20194;-58
2022/04/08 02:12:53;;;;;;;1.57;1.00;;;9.80;1.00;;;;;;5104832;28;20495;-58
2022/04/08 02:15:28;;;;;;;2.10;0.90;;;9.90;1.00;;;;;;5105412;28;20285;-59
2022/04/08 02:17:54;;;;;;;1.00;0.90;;;9.90;1.00;;;;;;5103427;28;20193;-59
2022/04/08 02:20:19;;;;;;;1.77;0.97;;;9.90;1.00;;;;;;5098943;28;20475;-59
2022/04/08 02:22:45;;;;;;;2.40;1.30;;;9.80;1.00;;;;;;5102694;28;20937;-58
2022/04/08 02:25:11;;;;;;;2.37;1.00;;;9.90;1.00;;;;;;5103941;28;20182;-58
2022/04/08 02:27:37;;;;;;;3.33;0.80;;;9.90;1.00;;;;;;5102980;28;20186;-58
2022/04/08 02:30:04;;;;;;;1.47;1.13;;;9.90;1.00;;;;;;5098968;28;20451;-58
2022/04/08 02:32:30;;;;;;;2.13;1.30;;;;;;;;;;5101840;28;20445;-59
2022/04/08 02:34:55;;;;;;;2.00;1.20;;;9.90;1.00;;;;;;5107914;28;20828;-58
2022/04/08 02:37:21;;;;;;;1.10;0.80;;;9.90;1.00;;;;;;5102009;28;20451;-57
2022/04/08 02:39:47;;;;;;;4.00;1.40;;;9.90;1.00;;;;;;5104254;28;20178;-57
2022/04/08 02:42:12;;;;;;;4.33;1.57;;;9.80;1.00;;;;;;5106666;28;20193;-59
2022/04/08 02:44:38;;;;;;;1.70;1.37;;;9.80;1.00;;;;;;5105499;28;20539;-58
2022/04/08 02:47:04;;;;;;;2.50;0.83;;;9.80;1.00;;;;;;5104717;28;20194;-60
2022/04/08 02:49:29;;;;;;;2.60;1.20;;;9.80;1.00;;;;;;5108888;27;20261;-59
2022/04/08 02:51:55;;;;;;;2.50;1.27;;;9.80;1.00;;;;;;5107945;28;20220;-58
2022/04/08 02:54:20;;;;;;;2.53;1.10;;;9.80;1.00;;;;;;5105361;28;20210;-58
2022/04/08 02:56:46;;;;;;;4.63;1.10;;;9.80;1.00;;;;;;5107762;28;20196;-56
2022/04/08 02:59:12;;;;;;;2.20;1.20;;;9.70;1.00;;;;;;5108570;28;20205;-58
2022/04/08 03:01:38;;;;;;;1.47;1.37;;;9.70;1.00;;;;;;5100656;28;20194;-58
2022/04/08 03:04:06;;;;;;;5.43;1.50;;;9.70;1.00;;;;;;5106310;28;20361;-58
2022/04/08 03:06:32;;;;;;;4.37;1.20;;;9.70;1.00;;;;;;5107535;28;20502;-57
2022/04/08 03:08:57;;;;;;;7.00;1.73;;;9.80;1.00;;;;;;5107157;28;20444;-58
2022/04/08 03:11:23;;;;;;;2.23;1.30;;;9.60;1.00;;;;;;5106313;28;20495;-58
2022/04/08 03:13:48;;;;;;;1.73;1.30;;;9.70;1.00;;;;;;5100873;28;20222;-58
2022/04/08 03:16:14;;;;;;;1.90;1.00;;;9.70;1.00;;;;;;5106906;28;20189;-59
2022/04/08 03:18:40;;;;;;;2.40;1.00;;;9.70;1.00;;;;;;5108882;28;20182;-57
2022/04/08 03:21:05;;;;;;;1.40;1.20;;;9.70;1.00;;;;;;5105811;28;20436;-59
2022/04/08 03:23:31;;;;;;;2.20;0.97;;;9.70;1.00;;;;;;5096974;28;20540;-57
2022/04/08 03:25:57;;;;;;;2.87;1.20;;;9.50;1.00;;;;;;5106138;28;20174;-58
2022/04/08 03:28:22;;;;;;;2.33;1.30;;;9.50;1.00;;;;;;5101618;28;20197;-58
2022/04/08 03:30:48;;;;;;;1.17;1.00;;;9.50;1.00;;;;;;5100143;28;20687;-59
2022/04/08 03:33:13;;;;;;;2.07;0.90;;;9.50;1.00;;;;;;5100809;28;20170;-59
2022/04/08 03:35:39;;;;;;;2.80;1.10;;;9.40;1.00;;;;;;5103406;28;20208;-57
2022/04/08 03:38:04;;;;;;;4.00;1.27;;;9.40;1.00;;;;;;5104185;28;20268;-57
2022/04/08 03:40:31;;;;;;;2.00;1.10;;;9.40;1.00;;;;;;5107869;28;20212;-58
2022/04/08 03:42:57;;;;;;;1.60;1.17;;;9.40;1.00;;;;;;5108684;28;20728;-57
2022/04/08 03:45:24;;;;;;;1.13;1.03;;;9.40;1.00;;;;;;5103075;28;20440;-58
2022/04/08 03:47:50;;;;;;;2.20;1.60;;;;;;;;;;5101110;28;20186;-58
2022/04/08 03:50:19;;;;;;;2.53;0.87;;;9.30;1.00;;;;;;5101531;28;20532;-56
2022/04/08 03:52:44;;;;;;;1.47;0.80;;;9.20;1.00;;;;;;5095230;28;20850;-56
2022/04/08 03:55:11;;;;;;;1.77;0.70;;;9.30;1.00;;;;;;5102151;28;20593;-57
2022/04/08 03:57:37;;;;;;;2.03;0.87;;;9.20;1.00;;;;;;5095764;28;20655;-55
2022/04/08 04:00:04;;;;;;;0.60;0.60;;;9.30;1.00;;;;;;5107184;28;20448;-56
2022/04/08 04:02:29;;;;;;;0.73;0.73;;;9.30;1.00;;;;;;5100910;28;20166;-57
2022/04/08 04:04:59;;;;;;;2.40;0.97;;;9.20;1.00;;;;;;5104436;28;20442;-58
2022/04/08 04:07:26;;;;;;;1.47;1.00;;;9.30;1.00;;;;;;5105484;28;20258;-57
2022/04/08 04:09:52;;;;;;;6.07;1.47;;;9.30;1.00;;;;;;5101240;28;20436;-58
2022/04/08 04:12:17;;;;;;;1.57;1.30;;;9.20;1.00;;;;;;5103754;28;20531;-57
2022/04/08 04:14:43;;;;;;;1.10;0.97;;;9.30;1.00;;;;;;5106061;28;20482;-57
2022/04/08 04:17:09;;;;;;;2.00;0.90;;;9.30;1.00;;;;;;5105046;28;20260;-58
2022/04/08 04:19:35;;;;;;;1.07;1.00;;;;;;;;;;5103692;28;20261;-57
2022/04/08 04:22:00;;;;;;;1.70;0.90;;;9.30;1.00;;;;;;5099743;28;20432;-60
2022/04/08 04:24:26;;;;;;;1.53;1.00;;;;;;;;;;5100691;28;20927;-59
2022/04/08 04:26:52;;;;;;;1.30;1.20;;;9.20;1.00;;;;;;5102424;28;20221;-58
2022/04/08 04:29:18;;;;;;;0.83;0.83;;;9.20;1.00;;;;;;5104532;28;20450;-58
2022/04/08 04:31:43;;;;;;;1.50;1.20;;;9.20;1.00;;;;;;5099891;28;20198;-59
2022/04/08 04:34:09;;;;;;;1.37;1.17;;;9.10;1.00;;;;;;5105992;28;20475;-58
2022/04/08 04:36:34;;;;;;;1.93;1.70;;;9.10;1.00;;;;;;5102040;28;20275;-58
2022/04/08 04:39:00;;;;;;;2.17;1.10;;;;;;;;;;5106229;28;20231;-59
2022/04/08 04:41:26;;;;;;;1.13;1.10;;;9.20;1.00;;;;;;5097416;28;20234;-58
2022/04/08 04:43:51;;;;;;;1.50;1.00;;;9.20;1.00;;;;;;5103324;28;20498;-58
2022/04/08 04:46:17;;;;;;;2.07;1.30;;;;;;;;;;5103797;28;20504;-57
2022/04/08 04:48:43;;;;;;;1.47;1.30;;;9.30;1.00;;;;;;5099503;28;20216;-57
2022/04/08 04:51:11;;;;;;;1.87;1.40;;;9.30;1.00;;;;;;5104090;28;20442;-58
2022/04/08 04:53:37;;;;;;;2.70;1.60;;;9.20;1.00;;;;;;5104570;28;20651;-58
2022/04/08 04:56:05;;;;;;;1.50;1.40;;;9.20;1.00;;;;;;5105494;28;20442;-57
2022/04/08 04:58:31;;;;;;;1.60;1.20;;;9.30;1.00;;;;;;5104256;28;20543;-57
2022/04/08 05:00:57;;;;;;;3.90;1.33;;;;;;;;;;5104957;28;20446;-58
2022/04/08 05:03:22;;;;;;;2.20;1.60;;;9.30;1.00;;;;;;5103436;28;20299;-56
2022/04/08 05:05:48;;;;;;;1.60;1.50;;;9.20;1.00;;;;;;5097972;28;20945;-59
2022/04/08 05:08:14;;;;;;;1.63;1.53;;;9.20;1.00;;;;;;5100094;28;20187;-57
2022/04/08 05:10:40;;;;;;;2.33;1.50;;;9.20;1.00;;;;;;5102323;28;20179;-58
2022/04/08 05:13:05;;;;;;;2.40;1.97;;;9.20;1.00;;;;;;5104463;28;20529;-57
2022/04/08 05:15:32;;;;;;;1.47;1.27;;;9.30;1.00;;;;;;5111571;28;20217;-59
2022/04/08 05:17:59;;;;;;;3.10;1.60;;;9.20;1.00;;;;;;5112134;28;20182;-58
2022/04/08 05:20:25;;;;;;;1.63;1.53;;;9.10;1.00;;;;;;5108899;28;20432;-58
2022/04/08 05:22:51;;;;;;;1.73;1.60;;;;;;;;;;5110970;28;20450;-58
2022/04/08 05:25:16;;;;;;;2.50;1.50;;;9.10;1.00;;;;;;5107701;28;20540;-58
2022/04/08 05:27:43;;;;;;;2.97;1.30;;;9.00;1.00;;;;;;5105764;28;20444;-59
2022/04/08 05:30:15;;;;;;;2.70;1.87;;;9.00;1.00;;;;;;5101099;28;20606;-59
2022/04/08 05:32:41;;;;;;;1.40;1.30;;;9.00;1.00;;;;;;5111779;28;20960;-58
2022/04/08 05:35:07;;;;;;;1.50;1.27;;;9.00;1.00;;;;;;5104315;28;20494;-59
2022/04/08 05:37:39;;;;;;;2.40;1.67;;;9.00;1.00;;;;;;5098506;28;20181;-58
2022/04/08 05:40:05;;;;;;;3.93;1.70;;;9.10;1.00;;;;;;5109261;28;20497;-59
2022/04/08 05:42:31;;;;;;;2.70;1.40;;;9.20;1.00;;;;;;5107986;27;20908;-58
2022/04/08 05:44:56;;;;;;;2.43;1.40;;;9.20;1.00;;;;;;5098399;28;20448;-57
2022/04/08 05:47:26;;;;;;;2.17;1.33;;;9.30;1.00;;;;;;5108945;28;20254;-57
2022/04/08 05:49:51;;;;;;;1.73;1.33;;;9.70;1.00;;;;;;5103819;28;20551;-58
2022/04/08 05:52:17;;;;;;;1.40;1.23;;;9.20;1.00;;;;;;5107560;28;20439;-59
2022/04/08 05:54:42;;;;;;;3.80;1.30;;;9.30;1.00;;;;;;5108374;28;20403;-58
2022/04/08 05:57:08;;;;;;;1.87;1.40;;;9.30;1.00;;;;;;5109571;28;20643;-58
2022/04/08 05:59:37;;;;;;;2.10;1.20;;;9.40;1.00;;;;;;5106283;28;20219;-58
2022/04/08 06:02:03;;;;;;;3.10;1.53;;;9.30;1.00;;;;;;5099880;28;20185;-57
2022/04/08 06:04:29;;;;;;;2.60;1.40;;;9.30;1.00;;;;;;5106621;28;20468;-58
2022/04/08 06:06:54;;;;;;;3.07;1.93;;;9.40;1.00;;;;;;5102565;28;20497;-59
2022/04/08 06:09:20;;;;;;;4.67;1.67;;;9.30;1.00;;;;;;5105984;28;20200;-59
2022/04/08 06:11:46;;;;;;;2.83;1.40;;;9.50;1.00;;;;;;5107165;28;20194;-57
2022/04/08 06:14:11;;;;;;;2.13;1.20;;;9.50;1.00;;;;;;5096197;28;20198;-58
2022/04/08 06:16:37;;;;;;;2.60;1.57;;;9.50;1.00;;;;;;5109497;28;20946;-58
2022/04/08 06:19:02;;;;;;;2.63;1.70;;;9.60;1.00;;;;;;5105437;28;20577;-58
2022/04/08 06:21:28;;;;;;;1.40;1.30;;;9.60;1.00;;;;;;5099669;28;20266;-58
2022/04/08 06:23:53;;;;;;;2.20;1.57;;;9.50;1.00;;;;;;5096781;28;20186;-58
2022/04/08 06:26:19;;;;;;;3.70;1.30;;;9.50;1.00;;;;;;5105336;28;20542;-60
2022/04/08 06:28:44;;;;;;;2.43;1.50;;;9.50;1.00;;;;;;5099626;28;20244;-57
2022/04/08 06:31:10;;;;;;;1.53;1.43;;;9.60;1.00;;;;;;5102704;28;20205;-59
2022/04/08 06:33:37;;;;;;;4.73;1.77;;;9.50;1.00;;;;;;5106137;28;20265;-59
2022/04/08 06:36:05;;;;;;;4.70;1.30;;;9.60;1.00;;;;;;5109057;28;20182;-58
2022/04/08 06:38:31;;;;;;;1.97;1.43;;;9.80;1.00;;;;;;5104520;28;20467;-59
2022/04/08 06:40:56;;;;;;;2.10;1.30;;;9.70;1.00;;;;;;5101119;28;20468;-59
2022/04/08 06:43:22;;;;;;;2.07;1.67;;;9.70;1.00;;;;;;5103673;28;20669;-60
2022/04/08 06:45:47;;;;;;;1.40;1.20;;;9.80;1.00;;;;;;5097758;28;20213;-58
2022/04/08 06:48:13;;;;;;;2.83;1.57;;;9.70;1.00;;;;;;5108556;28;20182;-57
2022/04/08 06:50:39;;;;;;;1.37;1.27;;;9.80;1.00;;;;;;5109025;28;20186;-61
2022/04/08 06:53:05;;;;;;;1.60;1.50;;;9.80;1.00;;;;;;5102228;28;20182;-58
2022/04/08 06:55:32;;;;;;;2.33;1.70;;;9.70;1.00;;;;;;5104973;28;20576;-59
2022/04/08 06:57:58;;;;;;;2.27;1.50;;;10.00;1.00;;;;;;5101747;28;20440;-59
2022/04/08 07:00:24;;;;;;;4.07;1.80;;;10.00;1.00;;;;;;5094233;28;20428;-60
2022/04/08 07:02:50;;;;;;;1.90;1.37;;;10.00;1.00;;;;;;5097799;28;20808;-58
2022/04/08 07:05:15;;;;;;;2.23;1.40;;;10.10;1.00;;;;;;5091737;28;20183;-59
2022/04/08 07:07:41;;;;;;;8.10;2.00;;;10.10;1.00;;;;;;5104181;28;20194;-58
2022/04/08 07:10:07;;;;;;;1.27;1.17;;;10.20;1.00;;;;;;5091595;28;20205;-58
2022/04/08 07:12:33;;;;;;;2.97;1.40;;;10.20;1.00;;;;;;5108386;28;20292;-58
2022/04/08 07:14:59;;;;;;;1.17;1.10;;;10.50;1.00;;;;;;5101191;28;20551;-58
2022/04/08 07:17:33;;;;;;;1.70;1.17;;;10.40;1.00;;;;;;5095328;28;20440;-59
2022/04/08 07:19:59;;;;;;;1.80;1.70;;;10.60;1.00;;;;;;5105125;28;20439;-57
2022/04/08 07:22:25;;;;;;;2.00;1.30;;;10.70;1.00;;;;;;5095900;28;20441;-58
2022/04/08 07:24:52;;;;;;;1.27;1.10;;;10.70;1.00;;;;;;5095703;28;20189;-58
2022/04/08 07:27:19;;;;;;;1.57;1.00;;;10.60;1.00;;;;;;5107275;28;20443;-58
2022/04/08 07:29:45;;;;;;;1.33;1.23;;;10.40;1.00;;;;;;5101786;28;20440;-59
2022/04/08 07:32:10;;;;;;;4.60;1.87;;;10.20;1.00;;;;;;5103939;28;20437;-56
2022/04/08 07:34:36;;;;;;;2.00;1.47;;;;;;;;;;5104536;28;21018;-57
2022/04/08 07:37:03;;;;;;;2.00;0.93;;;10.30;1.00;;;;;;5104555;28;20179;-57
2022/04/08 07:39:29;;;;;;;2.97;1.73;;;10.20;1.00;;;;;;5106276;28;20428;-59
2022/04/08 07:41:54;;;;;;;2.10;1.13;;;10.20;1.00;;;;;;5105951;28;20433;-58
2022/04/08 07:44:20;;;;;;;2.83;1.13;;;10.40;1.00;;;;;;5099355;28;20209;-58
2022/04/08 07:46:45;;;;;;;3.47;1.20;;;10.60;1.00;;;;;;5104555;28;20555;-59
2022/04/08 07:49:11;;;;;;;1.70;1.10;;;10.70;1.00;;;;;;5103418;28;20243;-59
2022/04/08 07:51:36;;;;;;;2.30;1.10;;;10.60;1.00;;;;;;5107414;28;20201;-59
2022/04/08 07:54:02;;;;;;;1.10;1.00;;;10.60;1.00;;;;;;5100304;28;20193;-59
2022/04/08 07:56:28;;;;;;;1.10;1.00;;;;;;;;;;5110942;28;20174;-59
2022/04/08 07:58:54;;;;;;;1.07;0.90;;;10.50;1.00;;;;;;5106105;28;20216;-57
2022/04/08 08:01:19;;;;;;;4.20;1.33;;;10.30;1.00;;;;;;5093852;28;20497;-59
2022/04/08 08:03:47;;;;;;;2.30;1.40;;;10.50;1.00;;;;;;5104665;28;20273;-59
2022/04/08 08:06:12;;;;;;;0.90;0.90;;;10.60;1.00;;;;;;5096982;28;20189;-59
2022/04/08 08:08:40;;;;;;;1.10;1.00;;;11.20;1.00;;;;;;5096947;28;20481;-59
2022/04/08 08:11:11;;;;;;;1.73;1.07;;;11.40;1.00;;;;;;5107905;28;20506;-58
2022/04/08 08:13:36;;;;;;;0.93;0.83;;;11.40;1.00;;;;;;5101594;28;20459;-58
2022/04/08 08:16:07;;;;;;;1.77;0.80;;;11.40;1.00;;;;;;5099010;28;20914;-59
2022/04/08 08:18:33;;;;;;;1.97;0.80;;;11.10;1.00;;;;;;5094879;28;20206;-59
2022/04/08 08:20:59;;;;;;;1.00;0.90;;;11.00;1.00;;;;;;5104652;28;20519;-60
2022/04/08 08:23:24;;;;;;;1.10;1.00;;;11.00;1.00;;;;;;5107827;28;20518;-57
2022/04/08 08:25:50;;;;;;;5.03;2.80;;;;;;;;;;5093734;28;20194;-59
2022/04/08 08:28:16;;;;;;;4.90;1.43;;;10.90;1.00;;;;;;5099989;28;20213;-59
2022/04/08 08:30:44;;;;;;;2.27;1.03;;;;;;;;;;5102261;28;20502;-59
2022/04/08 08:33:10;;;;;;;1.20;1.07;;;11.20;1.00;;;;;;5111063;28;20217;-60
2022/04/08 08:35:36;;;;;;;2.10;1.30;;;11.30;1.00;;;;;;5103248;28;21022;-60
2022/04/08 08:38:03;;;;;;;5.53;1.00;;;11.40;1.00;;;;;;5103307;28;20781;-58
2022/04/08 08:40:33;;;;;;;0.93;0.80;;;11.40;1.00;;;;;;5098019;28;20424;-60
2022/04/08 08:43:00;;;;;;;4.53;1.30;;;11.10;1.00;;;;;;5103680;28;20435;-58
2022/04/08 08:45:32;;;;;;;1.10;0.90;;;11.00;1.00;;;;;;5108924;28;20452;-59
2022/04/08 08:48:01;;;;;;;0.80;0.80;;;11.00;1.00;;;;;;5100234;28;20928;-58
2022/04/08 08:50:28;;;;;;;1.80;0.83;;;11.10;1.00;;;;;;5109320;28;20450;-59
2022/04/08 08:52:54;;;;;;;2.00;1.20;;;11.40;1.00;;;;;;5107803;28;20971;-60
2022/04/08 08:55:20;;;;;;;4.53;2.10;;;11.80;1.00;;;;;;5106398;28;20651;-60
2022/04/08 08:57:47;;;;;;;2.23;0.87;;;11.80;1.00;;;;;;5096077;28;20571;-59
2022/04/08 09:00:16;;;;;;;0.93;0.60;;;11.20;1.00;;;;;;5094251;28;20210;-60
2022/04/08 09:02:48;;;;;;;0.97;0.60;;;10.80;1.00;;;;;;5110947;28;20463;-62
2022/04/08 09:05:26;;;;;;;1.17;0.50;;;10.70;1.00;;;;;;5105100;28;20452;-58
2022/04/08 09:07:56;;;;;;;1.00;0.90;;;10.80;1.00;;;;;;5109654;28;20465;-60
2022/04/08 09:10:48;;;;;;;1.70;0.90;;;10.90;1.00;;;;;;5108095;28;20473;-59
2022/04/08 09:13:21;;;;;;;1.00;0.90;;;10.90;1.00;;;;;;5101646;28;20956;-60
2022/04/08 09:15:57;;;;;;;1.90;0.73;;;10.80;1.00;;;;;;5107399;28;20459;-58
2022/04/08 09:18:22;;;;;;;1.13;0.80;;;10.90;1.00;;;;;;5105909;28;20781;-59
2022/04/08 09:20:50;;;;;;;3.50;0.93;;;11.30;1.00;;;;;;5108993;28;20432;-58
2022/04/08 09:23:18;;;;;;;1.50;1.10;;;10.90;1.00;;;;;;5107476;28;20188;-61
2022/04/08 09:25:47;;;;;;;1.73;1.13;;;11.10;1.00;;;;;;5109249;28;20477;-59
2022/04/08 09:28:18;;;;;;;3.03;1.80;;;11.30;1.00;;;;;;5112133;28;20435;-59
2022/04/08 09:30:49;;;;;;;1.07;0.97;;;11.30;1.00;;;;;;5100009;28;20455;-60
2022/04/08 09:33:16;;;;;;;1.00;1.00;;;10.90;1.00;;;;;;5097637;28;20444;-58
2022/04/08 09:35:42;;;;;;;1.20;1.00;;;11.00;1.00;;;;;;5098228;28;20978;-59
2022/04/08 09:38:08;;;;;;;1.50;1.00;;;11.30;1.00;;;;;;5110584;28;20471;-60
2022/04/08 09:40:35;;;;;;;1.33;1.00;;;11.60;1.00;;;;;;5105610;28;20490;-58
2022/04/08 09:43:02;;;;;;;1.50;1.10;;;11.40;1.00;;;;;;5098931;28;20336;-58
2022/04/08 09:45:32;;;;;;;3.73;0.90;;;11.10;1.00;;;;;;5102687;28;20449;-59
2022/04/08 09:48:02;;;;;;;1.57;0.60;;;11.00;1.00;;;;;;5100763;28;20440;-58
2022/04/08 09:50:27;;;;;;;1.20;0.83;;;10.90;1.00;;;;;;5103823;28;20942;-59
2022/04/08 09:52:53;;;;;;;1.30;0.83;;;11.10;1.00;;;;;;5096953;28;20455;-59
2022/04/08 09:55:21;;;;;;;1.20;0.90;;;11.40;1.00;;;;;;5105966;28;20221;-60
2022/04/08 09:57:50;;;;;;;2.73;1.00;;;11.30;1.00;;;;;;5102177;28;20439;-58
2022/04/08 10:00:16;;;;;;;5.00;1.20;;;11.30;1.00;;;;;;5105315;28;20496;-58
2022/04/08 10:02:44;;;;;;;1.10;0.80;;;11.60;1.00;;;;;;5092659;28;20432;-59
2022/04/08 10:05:12;;;;;;;1.40;1.03;;;11.80;1.00;;;;;;5096725;28;20821;-61
2022/04/08 10:07:39;;;;;;;1.80;1.03;;;12.40;1.00;;;;;;5109635;28;20436;-58
2022/04/08 10:10:09;;;;;;;1.73;0.90;;;12.70;1.00;;;;;;5099009;28;20447;-59
2022/04/08 10:13:11;;;;;;;2.23;1.20;;;12.80;1.00;;;;;;5098820;28;20437;-59
2022/04/08 10:15:43;;;;;;;2.57;1.17;;;12.70;1.00;;;;;;5096503;28;20493;-60
2022/04/08 10:18:09;;;;;;;2.07;1.00;;;;;;;;;;5093428;28;20815;-59
2022/04/08 10:20:37;;;;;;;4.07;1.77;;;12.50;1.00;;;;;;5101196;28;20441;-58
2022/04/08 10:23:08;;;;;;;2.43;1.10;;;12.40;1.00;;;;;;5111353;28;21198;-60
2022/04/08 10:25:37;;;;;;;1.50;0.97;;;12.10;1.00;;;;;;5096492;28;20964;-60
2022/04/08 10:28:03;;;;;;;1.60;1.33;;;11.90;1.00;;;;;;5112279;28;20777;-60
2022/04/08 10:30:32;;;;;;;1.60;1.20;;;11.70;1.00;;;;;;5109184;28;20440;-58
2022/04/08 10:33:03;;;;;;;1.43;1.10;;;11.80;1.00;;;;;;5102848;28;20957;-58
2022/04/08 10:35:29;;;;;;;2.27;1.90;;;11.80;1.00;;;;;;5094514;28;20452;-60
2022/04/08 10:38:05;;;;;;;1.83;1.37;;;11.60;1.00;;;;;;5102135;28;20518;-59
2022/04/08 10:40:36;;;;;;;3.10;1.50;;;11.70;1.00;;;;;;5093874;28;20515;-60
2022/04/08 10:43:05;;;;;;;3.03;1.20;;;11.70;1.00;;;;;;5104294;28;20526;-59
2022/04/08 10:45:30;;;;;;;6.83;1.30;;;11.70;1.00;;;;;;5099218;28;20445;-60
2022/04/08 10:48:20;;;;;;;2.47;1.70;;;11.90;1.00;;;;;;5095898;28;20513;-60
2022/04/08 10:50:45;;;;;;;2.10;1.90;;;11.90;1.00;;;;;;5103055;28;20550;-59
2022/04/08 10:53:13;;;;;;;2.20;1.80;;;11.80;1.00;;;;;;5109738;28;20433;-60
2022/04/08 10:55:54;;;;;;;2.03;1.50;;;12.00;1.00;;;;;;5109120;28;20202;-58
2022/04/08 10:58:34;;;;;;;4.47;1.63;;;12.00;1.00;;;;;;5100380;28;20805;-59
2022/04/08 11:01:00;;;;;;;3.10;1.80;;;11.90;1.00;;;;;;5095957;28;20447;-59
2022/04/08 11:03:26;;;;;;;2.83;1.63;;;12.00;1.00;;;;;;5109608;28;20822;-60
2022/04/08 11:05:52;;;;;;;2.20;2.00;;;12.10;1.00;;;;;;5103743;28;20497;-61
2022/04/08 11:08:17;;;;;;;2.00;1.57;;;12.20;1.00;;;;;;5110455;28;20436;-59
2022/04/08 11:10:43;;;;;;;2.17;1.70;;;;;;;;;;5099036;28;20648;-58
2022/04/08 11:13:11;;;;;;;7.40;2.00;;;12.60;1.00;;;;;;5099142;28;20183;-60
2022/04/08 11:15:43;;;;;;;1.77;1.67;;;12.70;1.00;;;;;;5098740;28;20502;-60
2022/04/08 11:18:09;;;;;;;3.53;1.67;;;12.60;1.00;;;;;;5098971;28;20537;-60
2022/04/08 11:20:35;;;;;;;3.33;2.10;;;12.80;1.00;;;;;;5106791;28;20437;-59
2022/04/08 11:23:00;;;;;;;1.63;1.50;;;12.90;1.00;;;;;;5096662;28;20516;-61
2022/04/08 11:25:28;;;;;;;1.90;1.63;;;12.90;1.00;;;;;;5106951;28;20186;-61
2022/04/08 11:28:00;;;;;;;3.33;1.73;;;12.70;1.00;;;;;;5107710;27;20198;-61
2022/04/08 11:30:26;;;;;;;2.63;2.07;;;12.50;1.00;;;;;;5105982;28;20440;-60
2022/04/08 11:32:51;;;;;;;5.30;1.90;;;12.50;1.00;;;;;;5101832;28;20983;-60
2022/04/08 11:35:18;;;;;;;3.30;2.00;;;;;;;;;;5107404;28;20207;-61
2022/04/08 11:37:44;;;;;;;2.10;1.40;;;;;;;;;;5109094;28;20178;-61
2022/04/08 11:40:17;;;;;;;2.53;2.00;;;13.10;1.00;;;;;;5093037;28;20452;-61
2022/04/08 11:42:44;;;;;;;2.33;1.70;;;13.30;1.00;;;;;;5104066;28;20528;-61
2022/04/08 11:45:11;;;;;;;2.53;1.77;;;13.50;1.00;;;;;;5102055;28;20437;-62
2022/04/08 11:47:40;;;;;;;3.17;1.83;;;;;;;;;;5104244;28;20598;-60
2022/04/08 11:50:09;;;;;;;3.50;1.90;;;13.20;1.00;;;;;;5099041;28;20512;-58
2022/04/08 11:52:37;;;;;;;3.03;2.30;;;14.20;1.00;;;;;;5108092;28;20451;-59
2022/04/08 11:55:08;;;;;;;2.57;1.83;;;13.40;1.00;;;;;;5103443;28;20474;-62
2022/04/08 11:57:34;;;;;;;7.43;2.60;;;13.50;1.00;;;;;;5105007;28;20443;-59
2022/04/08 12:00:05;;;;;;;2.73;2.20;;;13.10;1.00;;;;;;5097188;28;20432;-61
2022/04/08 12:02:31;;;;;;;3.47;1.57;;;13.20;1.00;;;;;;5101765;28;20431;-61
2022/04/08 12:04:57;;;;;;;2.70;1.60;;;13.50;1.00;;;;;;5090954;28;20819;-60
2022/04/08 12:07:28;;;;;;;4.23;1.70;;;13.50;1.00;;;;;;5093636;28;20214;-61
2022/04/08 12:09:55;;;;;;;3.73;2.30;;;13.50;1.00;;;;;;5090664;28;20439;-60
2022/04/08 12:12:24;;;;;;;3.70;1.90;;;13.50;1.00;;;;;;5090441;28;20448;-61
2022/04/08 12:14:50;;;;;;;2.90;1.90;;;13.60;1.00;;;;;;5090664;28;20464;-61
2022/04/08 12:17:16;;;;;;;2.03;1.83;;;13.80;1.00;;;;;;5100417;28;21104;-61
2022/04/08 12:19:41;;;;;;;3.10;2.07;;;13.90;1.00;;;;;;5110621;28;20654;-59
2022/04/08 12:22:15;;;;;;;2.60;1.80;;;14.00;1.00;;;;;;5110503;28;20615;-60
2022/04/08 12:24:42;;;;;;;1.80;1.70;;;13.90;1.00;;;;;;5109744;28;20209;-60
2022/04/08 12:27:19;;;;;;;2.53;2.13;;;13.90;1.00;;;;;;5109377;28;20439;-59
2022/04/08 12:29:46;;;;;;;4.57;2.07;;;13.90;1.00;;;;;;5109861;28;20792;-60
2022/04/08 12:32:13;;;;;;;3.47;1.80;;;13.70;1.00;;;;;;5090549;28;20801;-59
2022/04/08 12:34:38;;;;;;;2.57;2.10;;;13.90;1.00;;;;;;5090680;28;21029;-61
2022/04/08 12:37:04;;;;;;;1.60;1.50;;;14.10;1.00;;;;;;5090309;28;20524;-61
2022/04/08 12:39:29;;;;;;;3.20;2.20;;;14.10;1.00;;;;;;5090628;28;20175;-58
2022/04/08 12:41:59;;;;;;;2.50;2.30;;;14.30;1.00;;;;;;5104644;28;20225;-58
2022/04/08 12:44:24;;;;;;;3.60;2.43;;;14.40;1.00;;;;;;5110735;28;20182;-59
2022/04/08 12:46:51;;;;;;;3.70;2.47;;;14.40;1.00;;;;;;5110848;28;20475;-59
2022/04/08 12:49:17;;;;;;;5.03;2.33;;;;;;;;;;5110463;28;20228;-58
2022/04/08 12:51:43;;;;;;;2.10;1.90;;;14.70;1.00;;;;;;5090354;28;20459;-59
2022/04/08 12:54:08;;;;;;;4.53;2.43;;;14.50;1.00;;;;;;5090356;28;20460;-59
2022/04/08 12:56:34;;;;;;;5.50;3.30;;;;;;;;;;5090147;28;20193;-61
2022/04/08 12:59:01;;;;;;;3.60;2.30;;;14.00;1.00;;;;;;5090306;28;20193;-60
2022/04/08 13:01:28;;;;;;;2.23;2.03;;;14.00;1.00;;;;;;5089929;28;20467;-58
2022/04/08 13:03:53;;;;;;;4.10;3.30;;;13.70;1.00;;;;;;5106577;28;20472;-60
2022/04/08 13:06:19;;;;;;;3.27;2.30;;;13.50;1.00;;;;;;5109842;28;20440;-59